Time;durP1;ratioP1;P1;durP2;ratioP2;P2;SDS_P1;SDS_P2;PMS_P1;PMS_P2;Temp;Humidity;BMP_temperature;BMP_pressure;BME280_temperature;BME280_humidity;BME280_pressure;Samples;Min_cycle;Max_cycle;Signal;HPM_P1;HPM_P2
2024/02/15 00:00:12;;;;;;;1.67;0.63;;;9.80;99.90;;;;;;4956234;28;20483;-46
2024/02/15 00:02:43;;;;;;;1.77;0.97;;;9.80;99.90;;;;;;4940579;28;20987;-46
2024/02/15 00:05:28;;;;;;;1.73;0.80;;;9.80;99.90;;;;;;4950043;28;20469;-46
2024/02/15 00:07:57;;;;;;;1.53;0.63;;;9.80;99.90;;;;;;4944199;28;20473;-48
2024/02/15 00:10:25;;;;;;;1.40;0.50;;;9.80;99.90;;;;;;4951628;28;20923;-46
2024/02/15 00:12:57;;;;;;;1.93;0.57;;;9.80;99.90;;;;;;4946471;28;20497;-49
2024/02/15 00:15:26;;;;;;;4.33;0.80;;;9.80;99.90;;;;;;4946635;28;20464;-47
2024/02/15 00:17:55;;;;;;;1.30;0.60;;;9.80;99.90;;;;;;4946882;28;20523;-46
2024/02/15 00:20:23;;;;;;;1.70;0.80;;;9.80;99.90;;;;;;4956173;28;21053;-47
2024/02/15 00:22:52;;;;;;;1.40;0.60;;;9.80;99.90;;;;;;4947237;28;20476;-47
2024/02/15 00:25:20;;;;;;;1.40;0.83;;;9.80;99.90;;;;;;4955959;28;20475;-46
2024/02/15 00:27:53;;;;;;;1.60;0.60;;;9.80;99.90;;;;;;4943476;28;20457;-47
2024/02/15 00:30:21;;;;;;;1.20;0.73;;;9.80;99.90;;;;;;4955680;28;20874;-47
2024/02/15 00:32:54;;;;;;;2.03;0.80;;;9.80;99.90;;;;;;4958172;28;20486;-46
2024/02/15 00:35:23;;;;;;;1.50;0.73;;;9.80;99.90;;;;;;4950903;28;20823;-48
2024/02/15 00:37:53;;;;;;;1.63;0.70;;;9.80;99.90;;;;;;4950741;28;20440;-47
2024/02/15 00:40:22;;;;;;;1.73;0.83;;;9.80;99.90;;;;;;4952808;28;20535;-47
2024/02/15 00:42:50;;;;;;;1.33;0.73;;;9.80;99.90;;;;;;4962272;28;20946;-47
2024/02/15 00:45:20;;;;;;;1.63;0.80;;;9.80;99.90;;;;;;4948208;28;20886;-49
2024/02/15 00:47:49;;;;;;;2.40;0.90;;;9.80;99.90;;;;;;4949408;28;20465;-48
2024/02/15 00:50:17;;;;;;;1.77;0.90;;;9.80;99.90;;;;;;4948511;28;20464;-48
2024/02/15 00:52:45;;;;;;;1.73;0.63;;;9.80;99.90;;;;;;4955643;28;20435;-47
2024/02/15 00:55:14;;;;;;;1.40;0.80;;;9.80;99.90;;;;;;4958421;28;20470;-47
2024/02/15 00:57:42;;;;;;;1.90;1.00;;;9.80;99.90;;;;;;4951052;28;20525;-47
2024/02/15 01:00:12;;;;;;;1.20;0.67;;;9.80;99.90;;;;;;4957045;28;20503;-48
2024/02/15 01:02:43;;;;;;;1.60;0.80;;;9.80;99.90;;;;;;4948398;28;20887;-47
2024/02/15 01:05:11;;;;;;;1.87;0.70;;;9.80;99.90;;;;;;4958170;28;21009;-46
2024/02/15 01:07:40;;;;;;;1.20;0.60;;;9.80;99.90;;;;;;4946209;28;20562;-47
2024/02/15 01:10:09;;;;;;;1.30;0.67;;;9.80;99.90;;;;;;4956701;28;20506;-47
2024/02/15 01:12:39;;;;;;;1.57;0.73;;;9.80;99.90;;;;;;4946483;28;20537;-46
2024/02/15 01:15:08;;;;;;;2.00;1.00;;;9.80;99.90;;;;;;4951878;28;20479;-47
2024/02/15 01:17:37;;;;;;;3.10;0.70;;;9.80;99.90;;;;;;4950068;28;20813;-49
2024/02/15 01:20:07;;;;;;;1.57;0.63;;;9.80;99.90;;;;;;4945211;28;20458;-48
2024/02/15 01:22:35;;;;;;;1.30;0.80;;;9.80;99.90;;;;;;4956560;28;20491;-48
2024/02/15 01:25:04;;;;;;;2.17;0.90;;;9.80;99.90;;;;;;4955248;28;21075;-47
2024/02/15 01:27:33;;;;;;;1.80;0.70;;;9.80;99.90;;;;;;4954318;28;21034;-47
2024/02/15 01:30:02;;;;;;;1.40;0.70;;;9.80;99.90;;;;;;4954149;28;20459;-47
2024/02/15 01:32:31;;;;;;;1.80;0.80;;;9.80;99.90;;;;;;4954581;28;20535;-46
2024/02/15 01:35:00;;;;;;;1.10;0.70;;;9.80;99.90;;;;;;4957428;28;20458;-46
2024/02/15 01:37:30;;;;;;;1.30;0.70;;;9.80;99.90;;;;;;4957371;28;20532;-46
2024/02/15 01:39:59;;;;;;;5.93;1.07;;;9.80;99.90;;;;;;4946955;28;20460;-47
2024/02/15 01:42:27;;;;;;;1.20;0.70;;;9.80;99.90;;;;;;4958625;28;20488;-46
2024/02/15 01:44:56;;;;;;;1.40;0.70;;;9.80;99.90;;;;;;4946705;28;20557;-49
2024/02/15 01:47:25;;;;;;;1.20;0.80;;;9.80;99.90;;;;;;4944355;28;20472;-46
2024/02/15 01:49:54;;;;;;;2.33;0.97;;;9.80;99.90;;;;;;4960126;28;20478;-47
2024/02/15 01:52:22;;;;;;;1.93;0.77;;;9.80;99.90;;;;;;4952451;28;20475;-47
2024/02/15 01:54:54;;;;;;;1.30;0.83;;;9.80;99.90;;;;;;4953807;28;20499;-49
2024/02/15 01:57:23;;;;;;;1.90;0.80;;;9.90;99.90;;;;;;4957175;28;20431;-50
2024/02/15 01:59:52;;;;;;;2.47;0.97;;;9.80;99.90;;;;;;4956635;28;20465;-49
2024/02/15 02:02:26;;;;;;;1.07;0.67;;;9.80;99.90;;;;;;4949771;28;21033;-47
2024/02/15 02:04:54;;;;;;;3.73;1.00;;;9.80;99.90;;;;;;4958415;28;20983;-47
2024/02/15 02:07:22;;;;;;;1.27;0.80;;;9.80;99.90;;;;;;4956843;28;20501;-47
2024/02/15 02:09:52;;;;;;;1.37;0.67;;;9.80;99.90;;;;;;4952892;28;20554;-47
2024/02/15 02:12:21;;;;;;;2.37;0.90;;;9.80;99.90;;;;;;4943777;28;20444;-47
2024/02/15 02:14:49;;;;;;;2.10;0.70;;;9.80;99.90;;;;;;4945892;28;20885;-49
2024/02/15 02:17:19;;;;;;;2.10;0.80;;;9.80;99.90;;;;;;4949424;28;20950;-47
2024/02/15 02:19:49;;;;;;;1.13;0.60;;;9.90;99.90;;;;;;4947716;28;20470;-50
2024/02/15 02:22:19;;;;;;;1.20;0.60;;;9.80;99.90;;;;;;4950382;28;21084;-46
2024/02/15 02:25:00;;;;;;;2.00;0.87;;;9.80;99.90;;;;;;4958188;28;20557;-48
2024/02/15 02:27:29;;;;;;;1.17;0.70;;;9.90;99.90;;;;;;4955657;28;21024;-47
2024/02/15 02:29:59;;;;;;;1.20;0.60;;;9.90;99.90;;;;;;4958068;28;20451;-46
2024/02/15 02:32:28;;;;;;;1.43;0.80;;;9.80;99.90;;;;;;4950407;28;20450;-46
2024/02/15 02:34:58;;;;;;;1.77;1.00;;;9.90;99.90;;;;;;4958222;28;20992;-49
2024/02/15 02:37:26;;;;;;;1.50;0.60;;;9.80;99.90;;;;;;4945560;28;20424;-47
2024/02/15 02:39:55;;;;;;;1.67;0.70;;;9.80;99.90;;;;;;4955635;28;20466;-47
2024/02/15 02:42:24;;;;;;;1.50;0.70;;;9.80;99.90;;;;;;4948880;28;20444;-47
2024/02/15 02:44:53;;;;;;;2.07;0.60;;;9.90;99.90;;;;;;4958572;28;20470;-50
2024/02/15 02:47:21;;;;;;;1.90;0.63;;;9.80;99.90;;;;;;4952245;28;20540;-47
2024/02/15 02:49:50;;;;;;;1.90;0.83;;;9.90;99.90;;;;;;4956762;28;20460;-48
2024/02/15 02:52:20;;;;;;;1.40;0.60;;;9.90;99.90;;;;;;4953469;28;20853;-46
2024/02/15 02:54:48;;;;;;;1.50;0.70;;;9.90;99.90;;;;;;4953625;28;20473;-46
2024/02/15 02:57:17;;;;;;;1.40;0.77;;;9.80;99.90;;;;;;4946168;28;20845;-46
2024/02/15 02:59:47;;;;;;;1.63;0.70;;;9.90;99.90;;;;;;4949904;28;20510;-48
2024/02/15 03:02:16;;;;;;;1.50;0.80;;;9.80;99.90;;;;;;4955851;28;20447;-50
2024/02/15 03:04:44;;;;;;;1.10;0.63;;;9.90;99.90;;;;;;4958836;28;20910;-47
2024/02/15 03:07:16;;;;;;;1.30;0.70;;;9.90;99.90;;;;;;4953288;28;20803;-47
2024/02/15 03:09:45;;;;;;;1.47;0.67;;;9.90;99.90;;;;;;4955640;28;20461;-46
2024/02/15 03:12:13;;;;;;;1.37;0.70;;;9.90;99.90;;;;;;4955035;28;20772;-46
2024/02/15 03:14:41;;;;;;;1.40;1.10;;;9.90;99.90;;;;;;4950267;28;20470;-46
2024/02/15 03:17:11;;;;;;;1.00;0.50;;;9.80;99.90;;;;;;4955165;28;20897;-49
2024/02/15 03:19:40;;;;;;;2.00;0.90;;;9.90;99.90;;;;;;4957818;28;20464;-47
2024/02/15 03:22:13;;;;;;;1.10;0.50;;;9.90;99.90;;;;;;4954465;28;20453;-46
2024/02/15 03:24:42;;;;;;;1.33;0.70;;;9.90;99.90;;;;;;4955234;28;20471;-47
2024/02/15 03:27:12;;;;;;;1.10;0.60;;;9.90;99.90;;;;;;4955655;28;20483;-47
2024/02/15 03:29:41;;;;;;;1.30;0.80;;;9.90;99.90;;;;;;4961724;28;20463;-47
2024/02/15 03:32:10;;;;;;;1.10;0.60;;;9.90;99.90;;;;;;4951709;28;20446;-47
2024/02/15 03:34:40;;;;;;;1.80;0.90;;;9.90;99.90;;;;;;4954661;28;20987;-46
2024/02/15 03:37:09;;;;;;;1.10;0.50;;;9.90;99.90;;;;;;4962507;28;20534;-47
2024/02/15 03:39:37;;;;;;;1.57;0.67;;;9.90;99.90;;;;;;4958643;28;20474;-48
2024/02/15 03:42:06;;;;;;;1.57;0.90;;;9.90;99.90;;;;;;4954685;28;20530;-47
2024/02/15 03:44:35;;;;;;;2.30;0.77;;;9.90;99.90;;;;;;4958660;28;20531;-47
2024/02/15 03:47:05;;;;;;;1.03;0.50;;;9.90;99.90;;;;;;4955943;28;20978;-46
2024/02/15 03:49:35;;;;;;;1.00;0.53;;;9.90;99.90;;;;;;4963348;28;20892;-47
2024/02/15 03:52:04;;;;;;;1.30;0.60;;;9.80;99.90;;;;;;4952419;28;20496;-47
2024/02/15 03:54:35;;;;;;;2.47;0.70;;;9.90;99.90;;;;;;4963075;28;20566;-46
2024/02/15 03:57:06;;;;;;;1.10;0.60;;;9.90;99.90;;;;;;4962627;28;20440;-45
2024/02/15 03:59:35;;;;;;;1.33;0.67;;;9.90;99.90;;;;;;4960818;28;20528;-47
2024/02/15 04:02:08;;;;;;;1.20;0.67;;;9.90;99.90;;;;;;4951338;28;20451;-46
2024/02/15 04:04:41;;;;;;;1.50;0.60;;;9.90;99.90;;;;;;4945998;28;20525;-46
2024/02/15 04:07:11;;;;;;;1.40;0.50;;;9.90;99.90;;;;;;4954187;28;20802;-50
2024/02/15 04:09:40;;;;;;;1.50;0.80;;;9.90;99.90;;;;;;4953327;28;20482;-46
2024/02/15 04:12:08;;;;;;;1.67;0.70;;;9.80;99.90;;;;;;4944140;28;20984;-47
2024/02/15 04:14:38;;;;;;;2.20;0.83;;;9.90;99.90;;;;;;4955100;28;20487;-47
2024/02/15 04:17:06;;;;;;;1.73;0.50;;;9.90;99.90;;;;;;4952149;28;20453;-47
2024/02/15 04:19:34;;;;;;;1.83;0.83;;;9.90;99.90;;;;;;4954604;28;20499;-47
2024/02/15 04:22:07;;;;;;;2.00;0.70;;;9.90;99.90;;;;;;4944110;28;20433;-46
2024/02/15 04:24:39;;;;;;;1.20;0.50;;;9.90;99.90;;;;;;4955852;28;20467;-47
2024/02/15 04:27:08;;;;;;;1.37;0.87;;;9.90;99.90;;;;;;4952202;28;20442;-46
2024/02/15 04:29:37;;;;;;;1.83;0.90;;;9.80;99.90;;;;;;4951219;28;20478;-47
2024/02/15 04:32:08;;;;;;;1.50;1.00;;;9.90;99.90;;;;;;4947213;28;20449;-46
2024/02/15 04:34:37;;;;;;;1.47;0.70;;;9.90;99.90;;;;;;4949117;28;20992;-46
2024/02/15 04:37:07;;;;;;;1.17;0.50;;;9.90;99.90;;;;;;4951781;28;20439;-50
2024/02/15 04:39:36;;;;;;;1.50;0.70;;;9.90;99.90;;;;;;4955786;28;20581;-47
2024/02/15 04:42:07;;;;;;;1.50;0.60;;;9.90;99.90;;;;;;4940699;28;20446;-48
2024/02/15 04:44:42;;;;;;;1.33;0.70;;;9.90;99.90;;;;;;4956616;28;20470;-47
2024/02/15 04:47:11;;;;;;;1.50;0.80;;;9.90;99.90;;;;;;4948544;28;20441;-47
2024/02/15 04:49:39;;;;;;;1.37;0.80;;;9.90;99.90;;;;;;4951188;28;20514;-45
2024/02/15 04:52:09;;;;;;;2.07;0.90;;;9.90;99.90;;;;;;4948689;28;20427;-47
2024/02/15 04:54:37;;;;;;;2.50;0.70;;;9.90;99.90;;;;;;4944656;28;20478;-47
2024/02/15 04:57:08;;;;;;;1.60;0.70;;;9.90;99.90;;;;;;4941820;28;20452;-46
2024/02/15 04:59:36;;;;;;;1.60;0.70;;;9.90;99.90;;;;;;4953909;28;20804;-47
2024/02/15 05:02:05;;;;;;;1.40;0.70;;;9.90;99.90;;;;;;4946638;28;20449;-53
2024/02/15 05:04:36;;;;;;;2.03;0.83;;;9.90;99.90;;;;;;4951353;28;20463;-45
2024/02/15 05:07:05;;;;;;;1.17;0.80;;;9.90;99.90;;;;;;4954679;28;20552;-46
2024/02/15 05:09:35;;;;;;;1.40;0.77;;;9.90;99.90;;;;;;4953047;28;20516;-47
2024/02/15 05:12:04;;;;;;;1.10;0.60;;;9.90;99.90;;;;;;4952385;28;20442;-50
2024/02/15 05:14:32;;;;;;;1.10;0.70;;;9.90;99.90;;;;;;4953200;28;20914;-47
2024/02/15 05:17:04;;;;;;;2.23;0.73;;;9.90;99.90;;;;;;4943371;28;20490;-45
2024/02/15 05:19:32;;;;;;;1.30;0.80;;;9.90;99.90;;;;;;4956882;28;20529;-46
2024/02/15 05:22:05;;;;;;;1.30;0.70;;;9.90;99.90;;;;;;4944215;28;20445;-47
2024/02/15 05:24:35;;;;;;;1.83;1.00;;;9.90;99.90;;;;;;4952288;28;20499;-47
2024/02/15 05:27:04;;;;;;;1.30;0.77;;;9.90;99.90;;;;;;4948319;28;20463;-46
2024/02/15 05:29:34;;;;;;;1.40;0.70;;;9.90;99.90;;;;;;4948597;28;20872;-46
2024/02/15 05:32:02;;;;;;;1.57;0.70;;;9.90;99.90;;;;;;4946489;28;22062;-47
2024/02/15 05:34:31;;;;;;;1.70;0.60;;;9.90;99.90;;;;;;4952845;28;20479;-47
2024/02/15 05:37:01;;;;;;;1.50;0.80;;;9.90;99.90;;;;;;4958914;28;20933;-47
2024/02/15 05:39:29;;;;;;;1.40;0.77;;;9.90;99.90;;;;;;4950357;28;20482;-46
2024/02/15 05:42:00;;;;;;;1.40;0.90;;;9.90;99.90;;;;;;4954116;28;20518;-46
2024/02/15 05:44:29;;;;;;;4.33;1.73;;;9.90;99.90;;;;;;4951631;28;20550;-47
2024/02/15 05:46:57;;;;;;;1.97;0.77;;;9.90;99.90;;;;;;4955040;28;20434;-46
2024/02/15 05:49:26;;;;;;;1.30;1.00;;;9.90;99.90;;;;;;4957847;28;20491;-46
2024/02/15 05:51:54;;;;;;;1.20;0.63;;;9.90;99.90;;;;;;4953603;28;20529;-46
2024/02/15 05:54:23;;;;;;;1.40;1.03;;;9.90;99.90;;;;;;4952585;28;20820;-48
2024/02/15 05:56:55;;;;;;;1.67;0.87;;;9.90;99.90;;;;;;4959407;28;20450;-47
2024/02/15 05:59:24;;;;;;;1.50;0.60;;;9.90;99.90;;;;;;4952562;28;20503;-46
2024/02/15 06:01:52;;;;;;;2.13;0.80;;;9.90;99.90;;;;;;4953339;28;20433;-46
2024/02/15 06:04:22;;;;;;;1.60;1.00;;;9.90;99.90;;;;;;4954651;28;20459;-46
2024/02/15 06:06:50;;;;;;;1.53;0.80;;;9.90;99.90;;;;;;4951641;28;20494;-46
2024/02/15 06:09:21;;;;;;;1.47;0.77;;;9.90;99.90;;;;;;4954239;28;20519;-46
2024/02/15 06:11:55;;;;;;;2.07;0.97;;;9.90;99.90;;;;;;4942328;28;20518;-46
2024/02/15 06:14:25;;;;;;;1.43;0.70;;;9.90;99.90;;;;;;4951081;28;20461;-46
2024/02/15 06:16:55;;;;;;;1.40;0.80;;;9.90;99.90;;;;;;4942026;28;20424;-46
2024/02/15 06:19:24;;;;;;;1.67;0.90;;;9.90;99.90;;;;;;4947670;28;20491;-46
2024/02/15 06:21:57;;;;;;;1.30;0.77;;;9.90;99.90;;;;;;4953025;28;20494;-46
2024/02/15 06:24:26;;;;;;;2.40;1.10;;;9.90;99.90;;;;;;4946769;28;20555;-45
2024/02/15 06:26:59;;;;;;;3.40;0.80;;;9.90;99.90;;;;;;4947414;28;20470;-45
2024/02/15 06:40:33;;;;;;;1.50;1.00;;;9.90;99.90;;;;;;4954373;28;20982;-46
2024/02/15 06:43:01;;;;;;;1.40;0.63;;;9.90;99.90;;;;;;4947378;28;20487;-46
2024/02/15 06:45:32;;;;;;;1.20;0.67;;;9.90;99.90;;;;;;4952213;28;20468;-46
2024/02/15 06:48:01;;;;;;;2.50;0.73;;;9.90;99.90;;;;;;4951018;28;20454;-46
2024/02/15 06:50:29;;;;;;;1.20;0.80;;;9.90;99.90;;;;;;4955472;28;20631;-46
2024/02/15 06:52:58;;;;;;;1.20;0.70;;;9.90;99.90;;;;;;4954708;28;20444;-46
2024/02/15 06:55:26;;;;;;;1.50;0.73;;;9.90;99.90;;;;;;4947045;28;21015;-46
2024/02/15 06:57:55;;;;;;;1.60;0.80;;;9.90;99.90;;;;;;4947784;28;20470;-45
2024/02/15 07:00:24;;;;;;;1.97;1.00;;;9.90;99.90;;;;;;4954986;28;20467;-46
2024/02/15 07:02:54;;;;;;;1.20;0.60;;;9.90;99.90;;;;;;4950298;28;20462;-47
2024/02/15 07:05:23;;;;;;;1.53;1.10;;;9.90;99.90;;;;;;4953662;28;20573;-46
2024/02/15 07:07:52;;;;;;;1.90;0.90;;;9.90;99.90;;;;;;4954027;28;20514;-46
2024/02/15 07:10:21;;;;;;;1.97;1.07;;;9.90;99.90;;;;;;4941520;28;20563;-46
2024/02/15 07:12:49;;;;;;;1.80;0.77;;;9.90;99.90;;;;;;4944564;28;20478;-46
2024/02/15 07:15:18;;;;;;;2.17;0.90;;;9.90;99.90;;;;;;4950318;28;20464;-46
2024/02/15 07:17:46;;;;;;;1.73;0.80;;;9.90;99.90;;;;;;4944098;28;20898;-46
2024/02/15 07:20:17;;;;;;;1.80;1.20;;;9.90;99.90;;;;;;4945250;28;20494;-46
2024/02/15 07:22:46;;;;;;;2.13;1.23;;;9.90;99.90;;;;;;4953812;28;20523;-46
2024/02/15 07:25:14;;;;;;;1.70;0.73;;;9.90;99.90;;;;;;4940748;28;20526;-46
2024/02/15 07:27:42;;;;;;;2.40;1.03;;;9.90;99.90;;;;;;5028357;23;20508;-46
2024/02/15 07:30:11;;;;;;;1.47;0.67;;;9.90;99.90;;;;;;4962012;28;20845;-48
2024/02/15 07:32:39;;;;;;;2.33;1.20;;;9.90;99.90;;;;;;4963064;28;20445;-46
2024/02/15 07:35:08;;;;;;;2.23;1.10;;;9.90;99.90;;;;;;4954749;28;20468;-47
2024/02/15 07:37:40;;;;;;;2.40;1.20;;;9.90;99.90;;;;;;4954288;28;20518;-47
2024/02/15 07:40:09;;;;;;;2.00;0.90;;;9.90;99.90;;;;;;4947182;28;20460;-48
2024/02/15 07:42:37;;;;;;;1.80;1.03;;;9.90;99.90;;;;;;4949354;28;20550;-49
2024/02/15 07:45:07;;;;;;;1.30;0.80;;;9.90;99.90;;;;;;4953354;28;20921;-48
2024/02/15 07:47:35;;;;;;;1.43;0.73;;;9.90;99.90;;;;;;4946914;28;20533;-50
2024/02/15 07:50:05;;;;;;;1.10;0.63;;;9.90;99.90;;;;;;4954940;28;20479;-47
2024/02/15 07:52:34;;;;;;;1.30;0.80;;;10.00;99.90;;;;;;4952936;28;20525;-48
2024/02/15 07:55:08;;;;;;;1.43;0.80;;;10.00;99.90;;;;;;4951233;28;20474;-47
2024/02/15 07:57:38;;;;;;;1.20;0.60;;;9.90;99.90;;;;;;4948976;28;20481;-45
2024/02/15 08:00:11;;;;;;;1.87;0.83;;;9.90;99.90;;;;;;4947499;28;21015;-46
2024/02/15 08:02:41;;;;;;;3.00;0.73;;;10.00;99.90;;;;;;4946719;28;20451;-49
2024/02/15 08:05:10;;;;;;;1.90;1.00;;;10.00;99.90;;;;;;4953906;28;20459;-48
2024/02/15 08:07:41;;;;;;;1.30;0.70;;;10.00;99.90;;;;;;4954113;28;20448;-47
2024/02/15 08:10:15;;;;;;;2.40;1.00;;;10.00;99.90;;;;;;4954706;28;20467;-47
2024/02/15 08:12:44;;;;;;;1.77;1.00;;;9.90;99.90;;;;;;4944705;28;20446;-48
2024/02/15 08:15:13;;;;;;;1.50;0.80;;;10.00;99.90;;;;;;4952159;28;20535;-48
2024/02/15 08:17:42;;;;;;;5.20;1.10;;;9.90;99.90;;;;;;4951711;28;20459;-46
2024/02/15 08:20:12;;;;;;;2.03;1.00;;;10.00;99.90;;;;;;4953029;28;20465;-45
2024/02/15 08:22:41;;;;;;;4.30;1.57;;;10.00;99.90;;;;;;4946859;28;20450;-45
2024/02/15 08:25:15;;;;;;;3.00;0.97;;;10.00;99.90;;;;;;4940472;28;20469;-45
2024/02/15 08:27:49;;;;;;;2.67;1.10;;;10.00;99.90;;;;;;4943229;28;20950;-45
2024/02/15 08:30:18;;;;;;;1.50;0.97;;;10.00;99.90;;;;;;4945545;28;20479;-49
2024/02/15 08:32:54;;;;;;;1.57;0.93;;;10.00;99.90;;;;;;4940405;28;20524;-46
2024/02/15 08:35:24;;;;;;;1.63;1.10;;;10.00;99.90;;;;;;4946659;28;20468;-45
2024/02/15 08:37:53;;;;;;;2.60;1.13;;;10.00;99.90;;;;;;4947867;28;20429;-46
2024/02/15 08:40:26;;;;;;;1.97;1.03;;;10.00;99.90;;;;;;4938519;28;20523;-47
2024/02/15 08:42:55;;;;;;;2.47;1.00;;;10.00;99.90;;;;;;4948340;28;20450;-47
2024/02/15 08:45:24;;;;;;;1.37;0.80;;;10.00;99.90;;;;;;4951483;28;20463;-47
2024/02/15 08:47:53;;;;;;;2.57;1.40;;;10.00;99.90;;;;;;4952928;28;20826;-48
2024/02/15 08:50:23;;;;;;;5.07;1.40;;;10.00;99.90;;;;;;4952702;28;20461;-47
2024/02/15 08:52:52;;;;;;;2.40;1.00;;;10.00;99.90;;;;;;4953991;28;20457;-46
2024/02/15 08:55:26;;;;;;;1.73;1.10;;;10.00;99.90;;;;;;4947588;28;20487;-50
2024/02/15 08:57:55;;;;;;;1.63;1.10;;;10.00;99.90;;;;;;4946119;28;20996;-48
2024/02/15 09:00:26;;;;;;;1.80;1.10;;;10.00;99.90;;;;;;4955889;28;20493;-50
2024/02/15 09:02:57;;;;;;;4.70;1.40;;;10.00;99.90;;;;;;4949905;28;20534;-48
2024/02/15 09:05:25;;;;;;;2.73;1.23;;;10.00;99.90;;;;;;4955312;28;20471;-48
2024/02/15 09:07:55;;;;;;;1.70;1.00;;;10.00;99.90;;;;;;4958060;28;20457;-48
2024/02/15 09:10:26;;;;;;;1.80;1.10;;;10.00;99.90;;;;;;4951978;28;20473;-50
2024/02/15 09:12:54;;;;;;;1.97;1.20;;;10.00;99.90;;;;;;4952579;28;20469;-50
2024/02/15 09:15:22;;;;;;;2.00;1.27;;;10.00;99.90;;;;;;4954952;28;20480;-45
2024/02/15 09:17:54;;;;;;;2.27;1.30;;;10.00;99.90;;;;;;4948911;28;20488;-45
2024/02/15 09:20:25;;;;;;;1.57;0.90;;;10.10;99.90;;;;;;4945319;28;20807;-47
2024/02/15 09:22:55;;;;;;;1.70;1.10;;;10.10;99.90;;;;;;4952431;28;20524;-46
2024/02/15 09:25:26;;;;;;;1.90;1.13;;;10.00;99.90;;;;;;4941869;28;20486;-48
2024/02/15 09:27:55;;;;;;;1.90;1.43;;;10.10;99.90;;;;;;4951418;28;20457;-51
2024/02/15 09:30:24;;;;;;;2.70;1.37;;;10.20;99.90;;;;;;4953665;28;20514;-49
2024/02/15 09:32:53;;;;;;;3.20;1.17;;;10.30;99.90;;;;;;4945488;28;20908;-49
2024/02/15 09:35:21;;;;;;;2.23;1.20;;;10.30;99.90;;;;;;4950133;28;20470;-46
2024/02/15 09:37:52;;;;;;;3.30;1.23;;;10.30;99.90;;;;;;4955702;28;20934;-46
2024/02/15 09:40:21;;;;;;;1.90;1.23;;;10.30;99.90;;;;;;4944859;28;20890;-47
2024/02/15 09:42:51;;;;;;;1.80;1.27;;;10.30;99.90;;;;;;4954502;28;20740;-45
2024/02/15 09:45:20;;;;;;;1.57;1.20;;;10.30;99.90;;;;;;4950023;28;20507;-46
2024/02/15 09:47:49;;;;;;;2.40;1.20;;;10.20;99.90;;;;;;4952167;28;20921;-45
2024/02/15 09:50:19;;;;;;;2.17;1.33;;;10.20;99.90;;;;;;4996925;23;20491;-46
2024/02/15 09:52:51;;;;;;;2.13;1.30;;;10.20;99.90;;;;;;4933372;28;20501;-48
2024/02/15 09:55:22;;;;;;;1.80;1.20;;;10.20;99.90;;;;;;4951087;28;20492;-45
2024/02/15 09:57:54;;;;;;;1.47;0.97;;;10.20;99.90;;;;;;4952630;28;20445;-47
2024/02/15 10:00:23;;;;;;;2.63;1.13;;;10.20;99.90;;;;;;4954269;28;20545;-45
2024/02/15 10:02:55;;;;;;;2.63;1.30;;;10.20;99.90;;;;;;4950865;28;20501;-47
2024/02/15 10:05:23;;;;;;;3.00;1.63;;;10.20;99.90;;;;;;4951455;28;20468;-47
2024/02/15 10:07:52;;;;;;;1.60;1.30;;;10.20;99.90;;;;;;4954885;28;20437;-48
2024/02/15 10:10:21;;;;;;;2.10;1.03;;;10.20;99.90;;;;;;4943835;28;20469;-46
2024/02/15 10:12:53;;;;;;;1.73;1.10;;;10.20;99.90;;;;;;4951669;28;20469;-47
2024/02/15 10:15:31;;;;;;;2.97;1.40;;;10.20;99.90;;;;;;4951316;28;20992;-47
2024/02/15 10:18:03;;;;;;;5.80;1.43;;;10.20;99.90;;;;;;4945312;28;20838;-51
2024/02/15 10:20:31;;;;;;;2.83;1.30;;;10.20;99.90;;;;;;4940123;28;20466;-49
2024/02/15 10:23:12;;;;;;;2.03;1.30;;;10.20;99.90;;;;;;4952489;28;20436;-48
2024/02/15 10:25:42;;;;;;;2.27;1.40;;;10.20;99.90;;;;;;4952961;28;20995;-50
2024/02/15 10:28:12;;;;;;;2.10;1.37;;;10.20;99.90;;;;;;4950298;28;20448;-46
2024/02/15 10:30:44;;;;;;;2.80;1.13;;;10.20;99.90;;;;;;4954729;28;20471;-47
2024/02/15 10:33:21;;;;;;;3.00;1.30;;;10.20;99.90;;;;;;4956056;28;20483;-45
2024/02/15 10:35:49;;;;;;;2.23;1.00;;;10.20;99.90;;;;;;4956319;28;20473;-46
2024/02/15 10:38:18;;;;;;;2.00;1.30;;;10.20;99.90;;;;;;4940721;28;20882;-45
2024/02/15 10:40:47;;;;;;;3.00;1.60;;;10.20;99.90;;;;;;4945967;28;20785;-47
2024/02/15 10:43:18;;;;;;;1.50;1.13;;;10.20;99.90;;;;;;4951348;28;20886;-49
2024/02/15 10:45:49;;;;;;;3.33;1.03;;;10.20;99.90;;;;;;4957429;28;20568;-48
2024/02/15 10:48:17;;;;;;;2.47;1.00;;;10.20;99.90;;;;;;4957194;28;20449;-46
2024/02/15 10:50:47;;;;;;;3.10;1.30;;;10.20;99.90;;;;;;4948587;28;20477;-47
2024/02/15 10:53:23;;;;;;;1.73;1.07;;;10.20;99.90;;;;;;4948327;28;20578;-47
2024/02/15 10:56:05;;;;;;;3.20;1.10;;;10.20;99.90;;;;;;4954212;28;20851;-50
2024/02/15 10:58:41;;;;;;;2.50;1.00;;;10.20;99.90;;;;;;4953841;28;20430;-48
2024/02/15 11:01:16;;;;;;;1.73;1.37;;;10.20;99.90;;;;;;4957249;28;20455;-48
2024/02/15 11:03:52;;;;;;;2.03;1.33;;;10.20;99.90;;;;;;4954000;28;20467;-50
2024/02/15 11:06:22;;;;;;;2.80;1.00;;;10.20;99.90;;;;;;4941915;28;20507;-48
2024/02/15 11:08:51;;;;;;;2.13;1.27;;;10.20;99.90;;;;;;4953584;28;20489;-47
2024/02/15 11:11:20;;;;;;;1.80;1.03;;;10.20;99.90;;;;;;4951452;28;20854;-46
2024/02/15 11:13:49;;;;;;;2.00;1.27;;;10.20;99.90;;;;;;4955496;28;20563;-45
2024/02/15 11:16:42;;;;;;;2.27;1.10;;;10.20;99.90;;;;;;4943360;28;20492;-46
2024/02/15 11:19:11;;;;;;;1.83;1.10;;;10.20;99.90;;;;;;4950126;28;20543;-44
2024/02/15 11:21:56;;;;;;;2.93;1.13;;;10.20;99.90;;;;;;4953313;28;20467;-44
2024/02/15 11:24:27;;;;;;;1.80;0.90;;;10.30;99.90;;;;;;4951468;28;20469;-45
2024/02/15 11:27:02;;;;;;;1.60;1.03;;;10.20;99.90;;;;;;4946473;28;20802;-44
2024/02/15 11:29:51;;;;;;;2.60;1.47;;;10.30;99.90;;;;;;4954077;28;20464;-44
2024/02/15 11:32:49;;;;;;;2.13;0.97;;;10.30;99.90;;;;;;4945990;28;20472;-45
2024/02/15 11:35:20;;;;;;;1.93;1.00;;;10.30;99.90;;;;;;4950105;28;20472;-45
2024/02/15 11:37:59;;;;;;;2.00;1.10;;;10.30;99.90;;;;;;4950903;28;20822;-46
2024/02/15 11:40:29;;;;;;;1.90;1.10;;;10.20;99.90;;;;;;4954253;28;20550;-45
2024/02/15 11:42:59;;;;;;;1.97;1.37;;;10.30;99.90;;;;;;4948782;28;20428;-45
2024/02/15 11:45:32;;;;;;;2.30;1.10;;;10.20;99.90;;;;;;4949625;28;20553;-45
2024/02/15 11:48:03;;;;;;;2.20;1.10;;;10.30;99.90;;;;;;4950277;28;20450;-46
2024/02/15 11:50:36;;;;;;;1.43;0.83;;;10.30;99.90;;;;;;4957449;28;20483;-46
2024/02/15 11:53:09;;;;;;;1.70;1.20;;;10.30;99.90;;;;;;4953378;28;21019;-45
2024/02/15 11:55:38;;;;;;;3.03;1.20;;;10.30;99.90;;;;;;4951854;28;20531;-46
2024/02/15 11:58:18;;;;;;;3.87;1.10;;;10.30;99.90;;;;;;4957120;28;20454;-45
2024/02/15 12:20:25;;;;;;;1.47;0.87;;;10.30;99.90;;;;;;4940045;28;20477;-45
2024/02/15 12:22:53;;;;;;;1.70;1.00;;;10.30;99.90;;;;;;4937587;28;20852;-45
2024/02/15 12:25:24;;;;;;;2.00;1.17;;;10.30;99.90;;;;;;4943715;28;20463;-46
2024/02/15 12:27:54;;;;;;;2.33;1.00;;;10.30;99.90;;;;;;4932870;28;20451;-45
2024/02/15 12:30:25;;;;;;;2.23;1.10;;;10.40;99.90;;;;;;4945648;28;20874;-44
2024/02/15 12:32:53;;;;;;;1.90;1.30;;;10.40;99.90;;;;;;4950414;28;20492;-45
2024/02/15 12:35:25;;;;;;;2.07;1.10;;;10.40;99.90;;;;;;4951308;28;20474;-46
2024/02/15 12:38:05;;;;;;;3.57;1.10;;;10.40;99.90;;;;;;4952481;28;20490;-45
2024/02/15 12:40:36;;;;;;;2.30;1.00;;;10.40;99.90;;;;;;4958168;28;20459;-46
2024/02/15 12:43:06;;;;;;;1.50;0.90;;;10.40;99.90;;;;;;4958649;28;20914;-45
2024/02/15 12:45:37;;;;;;;1.77;1.13;;;10.40;99.90;;;;;;4940707;28;20992;-46
2024/02/15 12:48:06;;;;;;;2.23;1.20;;;10.40;99.90;;;;;;4949738;28;20956;-45
2024/02/15 12:50:36;;;;;;;1.73;1.10;;;10.40;99.90;;;;;;4957438;28;20465;-45
2024/02/15 12:53:05;;;;;;;2.20;0.80;;;10.40;99.90;;;;;;4946350;28;20483;-46
2024/02/15 12:55:35;;;;;;;2.30;0.90;;;10.40;99.90;;;;;;4950973;28;20448;-46
2024/02/15 12:58:08;;;;;;;2.67;0.90;;;10.40;99.90;;;;;;4957089;28;20461;-46
2024/02/15 13:00:39;;;;;;;5.13;1.50;;;10.50;99.90;;;;;;4959686;28;21056;-46
2024/02/15 13:03:10;;;;;;;1.83;1.10;;;10.50;99.90;;;;;;4948312;28;20470;-45
2024/02/15 13:05:41;;;;;;;2.87;1.07;;;10.50;99.90;;;;;;4958324;28;20862;-46
2024/02/15 13:08:13;;;;;;;2.03;1.20;;;10.50;99.90;;;;;;4955224;28;20434;-46
2024/02/15 13:10:42;;;;;;;1.43;0.70;;;10.50;99.90;;;;;;4959269;28;20479;-47
2024/02/15 13:13:13;;;;;;;1.70;0.90;;;10.40;99.90;;;;;;4959269;28;20484;-47
2024/02/15 13:15:43;;;;;;;1.70;1.10;;;10.40;99.90;;;;;;4957406;28;20451;-46
2024/02/15 13:18:13;;;;;;;3.50;1.40;;;10.40;99.90;;;;;;4953635;28;20460;-50
2024/02/15 13:20:44;;;;;;;1.57;1.10;;;10.40;99.90;;;;;;4957904;28;21094;-47
2024/02/15 13:23:19;;;;;;;2.50;1.20;;;10.40;99.90;;;;;;4959214;28;20458;-46
2024/02/15 13:25:52;;;;;;;1.77;1.17;;;10.40;99.90;;;;;;4955073;28;20828;-46
2024/02/15 13:28:24;;;;;;;1.93;1.10;;;10.40;99.90;;;;;;4951354;28;20457;-46
2024/02/15 13:30:55;;;;;;;1.80;1.00;;;10.40;99.90;;;;;;4955858;28;20517;-46
2024/02/15 13:33:26;;;;;;;2.13;1.27;;;10.40;99.90;;;;;;4956966;28;20485;-46
2024/02/15 13:35:56;;;;;;;2.40;1.20;;;10.50;99.90;;;;;;4958196;28;20473;-46
2024/02/15 13:38:26;;;;;;;2.40;0.70;;;10.50;99.90;;;;;;4960685;28;20444;-45